Aérodrome :
LOGIN :

S'inscrire | Disclaimer

   EN    FR    IT 

 










Légende :    VFR   VFR Marginal   IFR   IFR Intensif   IFR Très Intensif
Visi : 
Plafond : 
>= 8 km
>= 3000ft
5 à 8 km
1000 à 3000 ft
1500m à 5 km
500 à 1000 ft
800 à 1500m
200 à 500 ft
< 800m
< 200 ft
Symboles :   Orages  Brouillard  Fortes neiges  Fortes précipitations  Vent > 20 kt
SIGMETs :   Divers  Orages  Givrage  Turbulence  Onde Orograph.  Cendres Volcan.






- Altitude de l'aérodrome : 194 ft
- Code IATA : LME


LFRM - Le Mans

DERNIER METAR :
  • 131000Z AUTO 27015G26KT 240V300 9999 SCT024 BKN030 BKN046 08/04 Q0991 TEMPO BKN020TCU

METARs EXPIRÉS :
  • 130930Z AUTO 27014G25KT 230V310 9999 -RA BKN023 BKN029 BKN035 07/04 Q0991 TEMPO 27018G35KT BKN020TCU
  • 130900Z AUTO 26011KT 230V300 9999 FEW045 07/03 Q0990 TEMPO 27018G35KT BKN020TCU
  • 130830Z AUTO 27015G28KT 240V300 CAVOK 07/03 Q0989 TEMPO BKN020TCU
  • 130800Z AUTO 27014G25KT 230V300 9999 FEW040/// SCT049/// BKN100/// ///TCU 07/03 Q0988 TEMPO 27018G35KT
  • 130730Z AUTO 26012KT 230V290 CAVOK 07/03 Q0988 TEMPO 27018G35KT BKN020TCU

TAF TAF LFRM
Valide du 13 à 06h jusqu'au 14 à 06h UTC


130500Z 1306/1406 28012KT 9999 BKN030
TEMPO 1306/1315 27018G35KT -SHRA BKN020TCU
TEMPO 1318/1322 26018G40KT 3000 RA BKN012
TEMPO 1323/1403 26020G45KT



MET'MAP, la Météo Aéronautique d'un coup d'oeil ! - Copyright ORBIFLY Décembre 2007 - Disclaimer

ORBIFLY MET'MAP TEAM :

Programmation & Développement : Alexandra Zaïnal
Sur une idée originale de : Baudouin d'Aumeries
Assistance à la programmation : Marc-Olivier Méhu
Soutien technique & logistique : Manuel Goepfert

Contact : metmap@orbifly.com




SOURCES & CREDITS :

   NOAA